Current Conditions
Light Rain
Showers



Pressure
1006.92 (hPa) - 29.73 (inHG)
Visibility

9.0 (km) - 5.6 (miles)
   Temperature
13  °C
55°F
12  °C
Dewpoint
94  %
 Humidity
   Wind Speed
23  km/h
12  kts
14  mph
6.3  m/s
   Wind Direction
 30°
North North
East
   Airport Data
EHAM
Location Amsterdam Airport Schiphol 20 km (12.43 mi)
Metar :EHAM 210625Z 03012KT 350V070 9000 RA FEW009 SCT011 BKN017 13/12 Q1007 NOSIG
Mon 21st June 08:25 am
   Raw Metar Info
Raw METAR is the most common format in the world for the transmission of observational weather data. It is highly standardized through the International Civil Aviation Organization (ICAO), which allows it to be understood throughout most of the world.
   API Info
Data Provided by
https://www.checkwx.com/weather/EHAM
   © Info
CSS/SVG/PHP scripts were developed by weather34.com for use in the weather34 template © 2015-2021

Guide Info provided by Metar-Wikipedia